FYKT/KMP METAR and TAF weather

Enter ICAO airport designator
Station Type Date Time Source
FYKT METAR 2019/10/23 13:00 UTC NOAA

FYKT 231300Z 21007KT CAVOK 28/M07 Q1013


Station Type Date Time Source
FYKT Decoded METAR 2019/10/23 13:00 UTC NOAA

Keetmanshoop, Namibia (FYKT) 26-32S 018-07E 1100M
Oct 23, 2019 - 09:00 AM EDT / 2019.10.23 1300 UTC
Wind: from the SSW (210 degrees) at 8 MPH (7 KT):0
Visibility: greater than 7 mile(s):0
Temperature: 82 F (28 C)
Dew Point: 19 F (-7 C)
Relative Humidity: 9%
Pressure (altimeter): 29.91 in. Hg (1013 hPa)
ob: FYKT 231300Z 21007KT CAVOK 28/M07 Q1013
cycle: 13

Station Type Date Time Source
FYKT TAF 2019/10/23 12:48 UTC NOAA

TAF FYKT 231000Z 2312/2412 20005KT CAVOK

Example: see airport list